Time;durP1;ratioP1;P1;durP2;ratioP2;P2;SDS_P1;SDS_P2;PMS_P1;PMS_P2;Temp;Humidity;BMP_temperature;BMP_pressure;BME280_temperature;BME280_humidity;BME280_pressure;Samples;Min_cycle;Max_cycle;Signal;HPM_P1;HPM_P2
2020/12/31 00:01:52;;;;;;;3.75;2.05;;;9.80;77.00;;;;;;5030111;28;20187;-76
2020/12/31 00:04:18;;;;;;;2.38;1.80;;;9.80;76.90;;;;;;5012026;28;20587;-78
2020/12/31 00:06:44;;;;;;;3.63;2.28;;;9.80;76.70;;;;;;5013229;28;20181;-78
2020/12/31 00:09:10;;;;;;;6.82;1.95;;;9.70;77.00;;;;;;5031009;28;20569;-78
2020/12/31 00:11:35;;;;;;;3.30;1.75;;;9.70;76.90;;;;;;5027241;28;20187;-78
2020/12/31 00:14:07;;;;;;;2.85;1.65;;;9.70;77.10;;;;;;5027779;28;20235;-78
2020/12/31 00:16:36;;;;;;;2.60;1.73;;;9.60;77.50;;;;;;5028461;28;20165;-78
2020/12/31 00:19:03;;;;;;;8.10;1.90;;;9.60;77.50;;;;;;5027936;28;20172;-79
2020/12/31 00:21:29;;;;;;;3.45;1.65;;;9.60;77.80;;;;;;5027541;28;20244;-79
2020/12/31 00:23:55;;;;;;;3.83;2.03;;;9.50;78.10;;;;;;5028115;28;20303;-79
2020/12/31 00:26:21;;;;;;;4.35;2.00;;;9.50;78.20;;;;;;5006718;28;20189;-79
2020/12/31 00:28:46;;;;;;;2.00;1.73;;;9.40;78.60;;;;;;5018991;28;20192;-79
2020/12/31 00:31:12;;;;;;;13.00;2.20;;;9.40;78.60;;;;;;5027427;28;20187;-78
2020/12/31 00:33:38;;;;;;;3.28;2.17;;;9.30;79.00;;;;;;5009773;28;20555;-79
2020/12/31 00:36:04;;;;;;;2.17;2.07;;;9.30;79.00;;;;;;5009630;28;20668;-79
2020/12/31 00:38:30;;;;;;;6.55;2.22;;;9.30;78.90;;;;;;4999987;28;20196;-79
2020/12/31 00:40:56;;;;;;;7.53;2.38;;;9.20;79.50;;;;;;5020369;28;20196;-79
2020/12/31 00:43:22;;;;;;;2.90;1.77;;;9.10;79.80;;;;;;5002478;28;20214;-79
2020/12/31 00:45:48;;;;;;;2.28;1.92;;;9.10;79.70;;;;;;5027469;28;20538;-79
2020/12/31 00:48:14;;;;;;;4.93;2.13;;;9.20;79.90;;;;;;4998241;28;20243;-78
2020/12/31 00:50:39;;;;;;;2.33;1.43;;;9.10;79.90;;;;;;5029805;28;20605;-79
2020/12/31 00:53:05;;;;;;;2.37;2.13;;;8.90;79.80;;;;;;5030197;28;20180;-79
2020/12/31 00:55:31;;;;;;;2.97;1.98;;;8.90;80.00;;;;;;5030076;28;20355;-79
2020/12/31 00:57:57;;;;;;;2.43;1.90;;;8.90;79.70;;;;;;5029709;28;20219;-79
2020/12/31 01:00:22;;;;;;;9.00;2.27;;;8.80;79.70;;;;;;5008248;28;20176;-79
2020/12/31 01:02:48;;;;;;;9.90;1.88;;;8.80;79.50;;;;;;4997309;28;20195;-78
2020/12/31 01:05:14;;;;;;;2.05;1.88;;;8.90;79.40;;;;;;5023974;28;20672;-79
2020/12/31 01:07:40;;;;;;;2.22;1.58;;;8.80;79.70;;;;;;5004979;28;20187;-78
2020/12/31 01:10:09;;;;;;;6.53;1.73;;;8.80;80.20;;;;;;5001266;28;21108;-79
2020/12/31 01:12:35;;;;;;;6.10;2.00;;;8.70;80.90;;;;;;5019091;28;20570;-79
2020/12/31 01:15:02;;;;;;;4.27;2.13;;;8.80;80.40;;;;;;5006137;28;20191;-79
2020/12/31 01:17:28;;;;;;;2.55;1.35;;;8.80;80.00;;;;;;5021727;28;20212;-78
2020/12/31 01:19:54;;;;;;;6.17;2.40;;;8.90;79.70;;;;;;5029621;28;20695;-79
2020/12/31 01:22:20;;;;;;;5.70;1.73;;;8.90;80.10;;;;;;5029521;28;20183;-79
2020/12/31 01:24:46;;;;;;;3.00;1.60;;;8.90;79.90;;;;;;5011000;28;20204;-79
2020/12/31 01:27:13;;;;;;;6.10;1.98;;;9.00;79.90;;;;;;5014447;28;20181;-78
2020/12/31 01:29:39;;;;;;;1.63;1.42;;;8.90;79.90;;;;;;5029340;28;20626;-79
2020/12/31 01:32:05;;;;;;;4.43;2.13;;;8.90;80.00;;;;;;5029483;28;20223;-79
2020/12/31 01:34:30;;;;;;;2.20;1.77;;;8.90;80.00;;;;;;5021698;28;20192;-80
2020/12/31 01:36:56;;;;;;;1.57;1.47;;;8.90;80.00;;;;;;4992474;28;20255;-80
2020/12/31 01:39:22;;;;;;;2.00;1.70;;;8.90;79.90;;;;;;5010270;28;20173;-79
2020/12/31 01:41:49;;;;;;;2.03;1.53;;;8.80;79.90;;;;;;5009010;28;20656;-79
2020/12/31 01:44:15;;;;;;;5.90;2.17;;;8.80;80.20;;;;;;5017362;28;20216;-79
2020/12/31 01:46:45;;;;;;;3.33;2.03;;;8.70;81.00;;;;;;4999877;28;20188;-79
2020/12/31 01:49:14;;;;;;;8.40;2.03;;;8.80;80.60;;;;;;5001076;28;20185;-79
2020/12/31 01:51:43;;;;;;;4.72;1.70;;;8.80;80.40;;;;;;5024066;28;20688;-79
2020/12/31 01:54:09;;;;;;;5.47;1.58;;;8.70;81.00;;;;;;5011707;28;20215;-79
2020/12/31 01:56:35;;;;;;;7.78;2.35;;;8.70;80.80;;;;;;5011832;28;20653;-79
2020/12/31 01:59:02;;;;;;;6.40;2.00;;;8.70;80.70;;;;;;5019759;28;20192;-80
2020/12/31 02:01:28;;;;;;;5.37;2.27;;;8.60;81.20;;;;;;5028537;28;20334;-79
2020/12/31 02:03:55;;;;;;;3.47;1.77;;;8.60;81.30;;;;;;5021497;28;20204;-79
2020/12/31 02:06:22;;;;;;;5.77;2.30;;;8.60;81.30;;;;;;5029081;28;21168;-78
2020/12/31 02:08:49;;;;;;;4.13;2.03;;;8.60;81.50;;;;;;5024652;28;20188;-78
2020/12/31 02:11:16;;;;;;;4.43;2.27;;;8.60;81.00;;;;;;4998925;28;20685;-78
2020/12/31 02:13:46;;;;;;;3.13;2.03;;;8.60;81.40;;;;;;4994888;28;20188;-78
2020/12/31 02:16:13;;;;;;;2.50;1.77;;;8.40;81.40;;;;;;5012893;28;20292;-79
2020/12/31 02:18:59;;;;;;;1.63;1.40;;;8.50;81.60;;;;;;5008817;28;20177;-78
2020/12/31 02:21:29;;;;;;;1.67;1.53;;;8.40;81.50;;;;;;5023020;28;20187;-78
2020/12/31 02:23:55;;;;;;;6.57;1.77;;;8.50;81.40;;;;;;5001661;28;20211;-78
2020/12/31 02:26:23;;;;;;;3.13;1.60;;;8.40;81.90;;;;;;5028470;28;20249;-77
2020/12/31 02:28:51;;;;;;;4.57;1.70;;;8.30;82.50;;;;;;5010024;28;20203;-77
2020/12/31 02:31:17;;;;;;;2.40;1.40;;;8.30;82.40;;;;;;5028738;28;20227;-78
2020/12/31 02:33:47;;;;;;;4.83;1.60;;;8.30;82.50;;;;;;4995003;28;20224;-78
2020/12/31 02:36:14;;;;;;;5.47;1.67;;;8.30;82.10;;;;;;5008004;28;20184;-78
2020/12/31 02:38:40;;;;;;;6.00;1.50;;;8.30;82.20;;;;;;5028502;28;20229;-78
2020/12/31 02:41:06;;;;;;;5.10;1.87;;;8.30;82.40;;;;;;5023653;28;20246;-78
2020/12/31 02:43:33;;;;;;;5.93;1.63;;;8.30;82.60;;;;;;5005149;28;20238;-78
2020/12/31 02:45:59;;;;;;;5.63;1.40;;;8.30;82.40;;;;;;5006206;28;20184;-78
2020/12/31 02:48:24;;;;;;;5.00;1.30;;;8.20;82.20;;;;;;5010690;28;20195;-78
2020/12/31 02:50:50;;;;;;;2.87;1.60;;;8.30;82.40;;;;;;5029039;28;20172;-79
2020/12/31 02:53:16;;;;;;;5.37;1.33;;;8.30;82.10;;;;;;5028729;28;20271;-78
2020/12/31 02:55:41;;;;;;;4.40;1.40;;;8.30;82.30;;;;;;5018412;28;20192;-79
2020/12/31 02:58:07;;;;;;;6.13;1.67;;;8.30;82.20;;;;;;5026869;28;20211;-79
2020/12/31 03:00:34;;;;;;;2.53;1.90;;;8.20;82.40;;;;;;5028010;28;20195;-79
2020/12/31 03:02:59;;;;;;;4.57;1.57;;;8.20;82.30;;;;;;5009604;28;20184;-79
2020/12/31 03:05:25;;;;;;;2.30;1.30;;;8.20;82.40;;;;;;5009653;28;20188;-79
2020/12/31 03:07:51;;;;;;;3.47;1.77;;;8.10;82.50;;;;;;5000266;28;20193;-79
2020/12/31 03:10:16;;;;;;;2.43;1.20;;;8.00;82.90;;;;;;4999618;28;20736;-79
2020/12/31 03:12:42;;;;;;;1.20;1.20;;;7.90;83.00;;;;;;5028474;28;20255;-80
2020/12/31 03:15:12;;;;;;;4.20;1.57;;;7.90;82.90;;;;;;5031789;28;20184;-78
2020/12/31 03:17:38;;;;;;;3.30;1.77;;;7.90;82.70;;;;;;5032039;28;20240;-79
2020/12/31 03:20:05;;;;;;;2.07;1.33;;;7.90;82.60;;;;;;5030458;28;20184;-78
2020/12/31 03:22:31;;;;;;;5.50;1.67;;;7.90;82.70;;;;;;5029913;28;20195;-78
2020/12/31 03:24:57;;;;;;;3.00;1.90;;;7.80;82.70;;;;;;5018292;28;20205;-79
2020/12/31 03:27:22;;;;;;;3.77;1.63;;;7.80;82.90;;;;;;5012678;28;20193;-80
2020/12/31 03:29:48;;;;;;;4.07;2.00;;;7.80;83.00;;;;;;5031435;28;20224;-79
2020/12/31 03:32:14;;;;;;;8.77;2.40;;;7.80;83.20;;;;;;5025833;28;20620;-79
2020/12/31 03:34:40;;;;;;;8.03;2.37;;;7.80;83.30;;;;;;5019720;28;20199;-79
2020/12/31 03:37:06;;;;;;;6.97;1.73;;;7.80;83.90;;;;;;5026707;28;20188;-79
2020/12/31 03:39:31;;;;;;;1.37;1.33;;;7.80;83.80;;;;;;5022188;28;20239;-79
2020/12/31 03:41:57;;;;;;;2.73;1.63;;;7.80;83.60;;;;;;4998234;28;20201;-79
2020/12/31 03:44:23;;;;;;;2.70;1.83;;;7.90;83.10;;;;;;5010948;28;20204;-79
2020/12/31 03:46:48;;;;;;;4.40;2.23;;;7.90;83.30;;;;;;5010078;28;20184;-79
2020/12/31 03:49:14;;;;;;;5.70;1.53;;;7.90;83.10;;;;;;5000561;28;20561;-79
2020/12/31 03:51:40;;;;;;;5.20;2.00;;;7.90;83.10;;;;;;5024136;28;20369;-79
2020/12/31 03:54:06;;;;;;;1.63;1.63;;;7.80;83.20;;;;;;5021558;28;20191;-80
2020/12/31 03:56:31;;;;;;;2.40;1.60;;;7.80;83.10;;;;;;5010941;28;20196;-78
2020/12/31 03:58:57;;;;;;;5.87;2.20;;;7.80;83.10;;;;;;5010691;28;20199;-80
2020/12/31 04:01:29;;;;;;;4.13;1.43;;;7.80;83.10;;;;;;5028271;28;20180;-79
2020/12/31 04:03:55;;;;;;;3.07;1.93;;;7.80;83.20;;;;;;5027920;28;20216;-79
2020/12/31 04:06:21;;;;;;;3.93;2.07;;;7.80;83.10;;;;;;5009191;28;20180;-79
2020/12/31 04:08:47;;;;;;;7.43;2.03;;;7.80;83.20;;;;;;5019430;28;20275;-79
2020/12/31 04:11:13;;;;;;;4.57;1.80;;;7.80;83.50;;;;;;5016067;28;20255;-80
2020/12/31 04:13:40;;;;;;;3.30;1.87;;;7.80;83.30;;;;;;5003944;28;20197;-79
2020/12/31 04:16:05;;;;;;;7.37;2.30;;;7.80;83.20;;;;;;4992846;28;20242;-80
2020/12/31 04:18:31;;;;;;;4.43;2.20;;;7.80;83.20;;;;;;5013156;28;20274;-80
2020/12/31 04:20:57;;;;;;;3.43;2.00;;;7.90;83.50;;;;;;5021718;28;20199;-80
2020/12/31 04:23:23;;;;;;;4.93;2.23;;;7.90;83.40;;;;;;5011828;28;20692;-79
2020/12/31 04:25:50;;;;;;;4.67;2.20;;;7.80;83.20;;;;;;5023462;28;20187;-78
2020/12/31 04:28:16;;;;;;;7.40;2.07;;;7.80;83.60;;;;;;5011441;28;20728;-78
2020/12/31 04:30:44;;;;;;;4.40;1.90;;;7.70;84.00;;;;;;5012783;28;20192;-78
2020/12/31 04:33:10;;;;;;;5.40;1.77;;;7.70;84.20;;;;;;5031025;28;20191;-78
2020/12/31 04:35:35;;;;;;;2.57;2.37;;;7.70;84.00;;;;;;5006042;28;20296;-77
2020/12/31 04:38:01;;;;;;;9.93;2.47;;;7.80;83.60;;;;;;5029213;28;20195;-78
2020/12/31 04:40:27;;;;;;;7.07;1.57;;;7.80;83.70;;;;;;5026556;28;20185;-78
2020/12/31 04:42:52;;;;;;;2.60;1.70;;;7.90;83.60;;;;;;5019525;28;20255;-79
2020/12/31 04:45:19;;;;;;;4.37;2.23;;;7.90;83.80;;;;;;5012668;28;20220;-79
2020/12/31 04:48:05;;;;;;;2.27;1.97;;;8.00;83.50;;;;;;5023518;28;20184;-79
2020/12/31 04:50:33;;;;;;;5.17;1.97;;;7.90;83.30;;;;;;5011263;28;20199;-79
2020/12/31 04:53:05;;;;;;;2.93;1.90;;;8.00;83.40;;;;;;5028878;28;20177;-79
2020/12/31 04:55:39;;;;;;;4.37;2.40;;;8.00;83.10;;;;;;5010403;28;20260;-80
2020/12/31 04:58:04;;;;;;;6.10;1.73;;;8.00;82.90;;;;;;4992762;28;20216;-79
2020/12/31 05:00:30;;;;;;;4.97;1.80;;;8.10;83.10;;;;;;5027897;28;20208;-79
2020/12/31 05:02:56;;;;;;;5.93;2.37;;;8.10;82.90;;;;;;5022522;28;20625;-79
2020/12/31 05:05:24;;;;;;;2.23;2.00;;;8.10;83.10;;;;;;5009839;28;20180;-79
2020/12/31 05:07:50;;;;;;;2.20;2.00;;;8.10;83.10;;;;;;5020279;28;20227;-79
2020/12/31 05:10:16;;;;;;;5.70;2.37;;;8.20;82.80;;;;;;5025309;28;20781;-79
2020/12/31 05:12:42;;;;;;;6.13;1.70;;;8.20;82.80;;;;;;5011718;28;20653;-79
2020/12/31 05:15:08;;;;;;;5.37;2.50;;;8.10;82.80;;;;;;5039319;28;20195;-79
2020/12/31 05:17:33;;;;;;;3.77;2.77;;;8.10;82.90;;;;;;5024406;28;20243;-79
2020/12/31 05:20:11;;;;;;;2.70;2.20;;;8.10;82.90;;;;;;5022510;28;20192;-79
2020/12/31 05:22:37;;;;;;;2.17;1.80;;;8.10;83.30;;;;;;5016543;28;20423;-79
2020/12/31 05:25:03;;;;;;;6.73;2.10;;;8.10;83.10;;;;;;5028988;28;20202;-79
2020/12/31 05:27:29;;;;;;;9.37;1.90;;;8.10;83.30;;;;;;5017830;28;20185;-79
2020/12/31 05:29:54;;;;;;;5.93;2.33;;;8.00;83.40;;;;;;5029465;28;20843;-79
2020/12/31 05:32:21;;;;;;;8.17;2.60;;;8.00;83.50;;;;;;5027959;28;20279;-79
2020/12/31 05:34:47;;;;;;;3.50;2.50;;;8.00;83.80;;;;;;5029582;28;20254;-79
2020/12/31 05:37:14;;;;;;;4.70;2.30;;;7.90;84.00;;;;;;5026565;28;20193;-80
2020/12/31 05:40:04;;;;;;;4.53;2.63;;;7.90;84.20;;;;;;5000855;28;20672;-80
2020/12/31 05:42:31;;;;;;;2.50;2.37;;;7.90;84.10;;;;;;5011425;28;20183;-79
2020/12/31 05:45:02;;;;;;;4.07;2.27;;;7.90;84.20;;;;;;5022785;28;20266;-79
2020/12/31 05:47:28;;;;;;;9.00;3.00;;;8.00;84.00;;;;;;5027024;28;20195;-80
2020/12/31 05:49:54;;;;;;;10.80;2.53;;;8.00;83.80;;;;;;5019672;28;20279;-79
2020/12/31 05:52:36;;;;;;;2.67;2.47;;;8.00;83.90;;;;;;5029043;28;20176;-79
2020/12/31 05:55:04;;;;;;;8.07;1.97;;;8.00;83.90;;;;;;5019256;28;20295;-79
2020/12/31 05:57:43;;;;;;;3.33;2.57;;;8.00;83.90;;;;;;5013077;28;20181;-79
2020/12/31 06:00:12;;;;;;;3.47;2.33;;;8.00;83.90;;;;;;5011120;28;20188;-79
2020/12/31 06:02:49;;;;;;;6.87;2.60;;;8.10;84.00;;;;;;5010757;28;20302;-80
2020/12/31 06:05:16;;;;;;;8.90;2.60;;;8.20;84.10;;;;;;5001596;28;20211;-79
2020/12/31 06:07:54;;;;;;;2.40;2.17;;;8.20;83.90;;;;;;5029161;28;20168;-79
2020/12/31 06:10:23;;;;;;;2.73;2.40;;;8.30;83.60;;;;;;5027970;28;20172;-79
2020/12/31 06:12:55;;;;;;;4.30;2.87;;;8.30;83.70;;;;;;5023105;28;20212;-80
2020/12/31 06:15:32;;;;;;;7.60;3.33;;;8.30;83.80;;;;;;5020512;28;20274;-80
2020/12/31 06:18:00;;;;;;;8.77;3.40;;;8.30;83.80;;;;;;5018198;28;20252;-79
2020/12/31 06:20:27;;;;;;;9.67;3.83;;;8.30;83.80;;;;;;5008959;28;20962;-80
2020/12/31 06:23:00;;;;;;;9.50;3.63;;;8.30;83.70;;;;;;4996314;28;20195;-79
2020/12/31 06:25:39;;;;;;;7.07;3.50;;;8.40;83.60;;;;;;5019162;28;20192;-80
2020/12/31 06:28:18;;;;;;;10.80;3.13;;;8.50;83.50;;;;;;5008205;28;20718;-79
2020/12/31 06:30:45;;;;;;;4.37;2.57;;;8.50;83.50;;;;;;5019488;28;20185;-80
2020/12/31 06:33:35;;;;;;;6.40;2.70;;;8.60;83.60;;;;;;5016627;28;20267;-79
2020/12/31 06:36:02;;;;;;;5.17;2.93;;;8.60;83.20;;;;;;4998167;28;20271;-79
2020/12/31 06:38:30;;;;;;;10.67;3.47;;;8.70;83.10;;;;;;5009369;28;20184;-80
2020/12/31 06:40:56;;;;;;;8.37;3.30;;;8.80;82.90;;;;;;4992786;28;20193;-79
2020/12/31 06:43:30;;;;;;;8.23;3.47;;;8.90;82.80;;;;;;5002928;28;20204;-81
2020/12/31 06:45:57;;;;;;;8.00;2.63;;;9.00;82.70;;;;;;5009026;28;20250;-81
2020/12/31 06:48:25;;;;;;;4.70;2.97;;;9.20;82.70;;;;;;5011089;28;20208;-81
2020/12/31 06:50:54;;;;;;;3.90;2.72;;;9.30;82.30;;;;;;5014176;28;20185;-82
2020/12/31 06:53:31;;;;;;;6.97;3.50;;;9.40;82.10;;;;;;5022546;28;20247;-82
2020/12/31 06:55:59;;;;;;;3.60;1.85;;;9.50;81.80;;;;;;5014306;28;20241;-82
2020/12/31 06:58:25;;;;;;;5.00;2.55;;;9.60;81.10;;;;;;5005245;28;20246;-83
2020/12/31 07:00:52;;;;;;;7.17;2.73;;;9.70;81.10;;;;;;5020982;28;20192;-82
2020/12/31 07:03:40;;;;;;;12.68;3.45;;;9.80;80.90;;;;;;5010601;28;20624;-83
2020/12/31 07:06:39;;;;;;;11.40;3.08;;;9.80;80.70;;;;;;5022843;28;20187;-84
2020/12/31 07:09:35;;;;;;;9.13;2.70;;;9.90;80.60;;;;;;4983710;28;20953;-83
2020/12/31 07:12:07;;;;;;;2.63;2.42;;;9.90;80.30;;;;;;4971085;28;20201;-81
2020/12/31 07:14:36;;;;;;;4.88;3.08;;;9.90;80.30;;;;;;4954874;28;20190;-82
2020/12/31 07:17:11;;;;;;;6.22;3.25;;;9.90;80.30;;;;;;4970765;28;20248;-83
2020/12/31 07:19:45;;;;;;;9.68;3.67;;;10.00;80.30;;;;;;4970648;28;20224;-82
2020/12/31 07:22:10;;;;;;;8.00;5.40;;;10.00;80.50;;;;;;4975667;28;20309;-82
2020/12/31 07:25:06;;;;;;;10.45;5.75;;;10.00;80.90;;;;;;4956086;28;20218;-82
2020/12/31 07:27:33;;;;;;;11.25;6.97;;;10.00;81.10;;;;;;4954431;28;20709;-82
2020/12/31 07:30:03;;;;;;;12.75;6.70;;;9.90;81.60;;;;;;4954203;28;20588;-83
2020/12/31 07:33:00;;;;;;;11.32;6.43;;;9.80;81.70;;;;;;4972870;28;20874;-82
2020/12/31 07:35:38;;;;;;;11.43;7.45;;;9.80;83.00;;;;;;4958941;28;20612;-82
2020/12/31 07:38:14;;;;;;;11.05;6.47;;;9.80;83.20;;;;;;4952539;28;20292;-82
2020/12/31 07:40:45;;;;;;;7.82;6.15;;;9.80;83.90;;;;;;4953545;28;20245;-83
2020/12/31 07:43:37;;;;;;;11.90;6.00;;;9.80;83.80;;;;;;4969601;28;20194;-82
2020/12/31 07:46:03;;;;;;;11.45;6.07;;;9.80;85.10;;;;;;5009407;28;20192;-83
2020/12/31 07:48:30;;;;;;;18.23;6.20;;;9.70;86.20;;;;;;5021124;28;20269;-83
2020/12/31 07:50:58;;;;;;;14.25;7.03;;;9.70;86.10;;;;;;5030992;28;20204;-79
2020/12/31 07:53:24;;;;;;;12.30;5.72;;;9.70;86.20;;;;;;5028360;28;20177;-77
2020/12/31 07:55:54;;;;;;;10.68;4.80;;;9.60;87.00;;;;;;5030302;28;20211;-78
2020/12/31 07:58:24;;;;;;;15.85;5.32;;;9.50;87.90;;;;;;5012652;28;20180;-87
2020/12/31 08:01:07;;;;;;;9.75;4.35;;;9.40;88.90;;;;;;5012377;28;20199;-87
2020/12/31 08:03:34;;;;;;;7.70;4.25;;;9.40;90.80;;;;;;5009575;28;20215;-87
2020/12/31 08:06:04;;;;;;;9.73;4.50;;;9.30;90.30;;;;;;5030491;28;20764;-80
2020/12/31 08:08:30;;;;;;;7.93;4.25;;;9.20;89.90;;;;;;5049726;28;20217;-91
2020/12/31 08:10:57;;;;;;;3.25;2.92;;;9.10;89.90;;;;;;5033343;28;20179;-85
2020/12/31 08:13:22;;;;;;;6.13;3.88;;;9.10;89.50;;;;;;5015885;28;20869;-87
2020/12/31 08:15:54;;;;;;;6.97;3.50;;;9.10;90.20;;;;;;5015204;28;20184;-82
2020/12/31 08:18:21;;;;;;;3.58;3.30;;;9.10;91.20;;;;;;5031066;28;20668;-84
2020/12/31 08:20:49;;;;;;;6.55;3.30;;;9.10;91.40;;;;;;5014050;28;20185;-83
2020/12/31 08:23:28;;;;;;;10.82;3.67;;;9.10;90.50;;;;;;5012381;28;20181;-82
2020/12/31 08:25:57;;;;;;;3.53;3.23;;;9.10;90.20;;;;;;5031839;28;20177;-81
2020/12/31 08:28:23;;;;;;;4.30;3.60;;;9.10;90.20;;;;;;5030292;28;20200;-83
2020/12/31 08:30:49;;;;;;;8.23;3.40;;;9.10;90.30;;;;;;5012349;28;20639;-81
2020/12/31 08:33:23;;;;;;;7.63;3.20;;;9.10;89.70;;;;;;5030163;28;20190;-82
2020/12/31 08:35:50;;;;;;;6.43;3.13;;;9.20;90.00;;;;;;5020436;28;20260;-84
2020/12/31 08:38:20;;;;;;;8.18;3.28;;;9.20;90.50;;;;;;5000830;28;20261;-81
2020/12/31 08:40:49;;;;;;;6.45;2.60;;;9.20;90.30;;;;;;5001201;28;20946;-82
2020/12/31 08:43:25;;;;;;;5.13;2.87;;;9.30;90.50;;;;;;5011918;28;20203;-82
2020/12/31 08:45:57;;;;;;;5.70;2.97;;;9.30;90.80;;;;;;5015166;28;20172;-89
2020/12/31 08:48:25;;;;;;;5.27;3.00;;;9.30;89.90;;;;;;5016433;28;20168;-90
2020/12/31 08:51:11;;;;;;;5.00;2.63;;;9.40;91.20;;;;;;5012049;28;20191;-87
2020/12/31 08:53:55;;;;;;;3.23;3.03;;;9.40;91.20;;;;;;5016477;28;20187;-88
2020/12/31 08:56:24;;;;;;;3.30;2.87;;;9.40;91.20;;;;;;5015757;28;20247;-86
2020/12/31 08:58:50;;;;;;;6.38;3.42;;;9.40;90.90;;;;;;5014278;28;20570;-85
2020/12/31 09:01:26;;;;;;;5.53;3.30;;;9.40;90.80;;;;;;5033311;28;20195;-86
2020/12/31 09:04:13;;;;;;;5.63;3.53;;;9.50;91.50;;;;;;5035489;28;20284;-89
2020/12/31 09:06:42;;;;;;;6.87;2.90;;;9.50;91.50;;;;;;5035062;28;20254;-89
2020/12/31 09:09:28;;;;;;;2.67;2.42;;;9.50;91.30;;;;;;4997477;28;20227;-89
2020/12/31 09:12:03;;;;;;;3.37;2.90;;;9.50;91.10;;;;;;4996421;28;20181;-88
2020/12/31 09:14:31;;;;;;;3.25;2.80;;;9.50;90.40;;;;;;5003990;28;20414;-80
2020/12/31 09:16:57;;;;;;;5.90;3.40;;;9.60;91.60;;;;;;5023798;28;20191;-80
2020/12/31 09:19:23;;;;;;;5.50;3.47;;;9.60;91.90;;;;;;5009427;28;20185;-80
2020/12/31 09:21:50;;;;;;;4.00;3.43;;;9.60;92.70;;;;;;5012194;28;20203;-90
2020/12/31 09:24:23;;;;;;;5.82;3.60;;;9.70;92.20;;;;;;5017272;28;20200;-86
2020/12/31 09:26:52;;;;;;;2.47;2.27;;;9.80;93.00;;;;;;5017434;28;20226;-89
2020/12/31 09:29:18;;;;;;;2.35;2.17;;;9.90;91.70;;;;;;5012845;28;20254;-92
2020/12/31 09:31:44;;;;;;;2.55;2.05;;;10.00;91.80;;;;;;5027736;28;20196;-85
2020/12/31 09:34:10;;;;;;;4.35;2.47;;;10.20;91.70;;;;;;5029644;28;20206;-87
2020/12/31 09:36:35;;;;;;;2.57;2.20;;;10.20;91.20;;;;;;5015419;28;20679;-88
2020/12/31 09:39:01;;;;;;;2.35;2.03;;;10.30;90.80;;;;;;5048561;28;20186;-88
2020/12/31 09:41:27;;;;;;;4.57;2.63;;;10.50;91.00;;;;;;5050339;28;20263;-87
2020/12/31 09:43:53;;;;;;;2.50;2.30;;;10.70;90.20;;;;;;5044263;28;20214;-86
2020/12/31 09:46:20;;;;;;;6.30;2.28;;;11.00;90.90;;;;;;5011777;28;20683;-88
2020/12/31 09:48:47;;;;;;;2.05;1.95;;;11.50;90.70;;;;;;5030204;28;20187;-90
2020/12/31 09:51:13;;;;;;;2.28;2.17;;;12.10;90.10;;;;;;5027931;28;20181;-86
2020/12/31 09:53:39;;;;;;;3.25;2.30;;;12.50;88.30;;;;;;5027838;28;20263;-85
2020/12/31 09:56:05;;;;;;;5.65;2.78;;;13.00;85.50;;;;;;5029615;28;20238;-83
2020/12/31 09:58:31;;;;;;;2.92;2.42;;;13.60;84.20;;;;;;5028771;28;20180;-81
2020/12/31 10:00:57;;;;;;;6.93;2.90;;;14.30;82.60;;;;;;5028478;28;20192;-81
2020/12/31 10:03:25;;;;;;;4.47;3.10;;;15.10;80.90;;;;;;5028972;28;20186;-83
2020/12/31 10:05:51;;;;;;;3.05;2.85;;;16.10;79.90;;;;;;5039922;28;20203;-86
2020/12/31 10:08:17;;;;;;;10.15;2.92;;;17.00;77.50;;;;;;5031369;28;20184;-87
2020/12/31 10:10:43;;;;;;;4.88;3.13;;;17.80;75.90;;;;;;5011061;28;20187;-85
2020/12/31 10:13:09;;;;;;;4.97;3.13;;;18.50;73.60;;;;;;5016813;28;20763;-85
2020/12/31 10:15:35;;;;;;;3.38;3.00;;;19.10;71.30;;;;;;5039392;28;20183;-83
2020/12/31 10:18:00;;;;;;;3.50;2.95;;;19.50;69.90;;;;;;5048449;28;20179;-87
2020/12/31 10:20:26;;;;;;;2.85;2.38;;;20.10;70.00;;;;;;5030461;28;20175;-80
2020/12/31 10:22:52;;;;;;;5.80;2.53;;;20.50;69.20;;;;;;5047217;28;20565;-85
2020/12/31 10:25:18;;;;;;;4.32;2.47;;;20.80;67.30;;;;;;5017021;28;20610;-83
2020/12/31 10:27:43;;;;;;;3.38;2.40;;;20.80;67.30;;;;;;5015692;28;20195;-79
2020/12/31 10:30:09;;;;;;;4.30;2.75;;;20.50;67.00;;;;;;5018241;28;20676;-83
2020/12/31 10:32:35;;;;;;;3.17;2.05;;;20.20;67.70;;;;;;5032007;28;20176;-92
2020/12/31 10:35:01;;;;;;;4.13;2.50;;;20.30;68.70;;;;;;5016484;28;20187;-93
2020/12/31 10:37:26;;;;;;;7.60;2.47;;;20.40;67.80;;;;;;5013619;28;20188;-78
2020/12/31 10:39:52;;;;;;;4.97;2.42;;;20.70;68.20;;;;;;5036272;28;20176;-92
2020/12/31 10:42:18;;;;;;;2.63;2.42;;;21.20;67.50;;;;;;5040233;28;20184;-77
2020/12/31 10:44:44;;;;;;;3.70;2.00;;;21.90;66.50;;;;;;5025406;28;20676;-78
2020/12/31 10:47:10;;;;;;;7.20;3.05;;;22.50;63.00;;;;;;5025885;28;20617;-77
2020/12/31 10:49:36;;;;;;;6.25;2.20;;;22.60;63.60;;;;;;5025309;28;20177;-77
2020/12/31 10:52:03;;;;;;;2.63;2.33;;;23.00;64.00;;;;;;5024812;28;20371;-76
2020/12/31 10:54:29;;;;;;;2.88;2.67;;;23.50;62.90;;;;;;5024765;28;20813;-78
2020/12/31 10:56:58;;;;;;;5.95;2.17;;;24.00;60.30;;;;;;5024205;28;20282;-76
2020/12/31 10:59:24;;;;;;;2.97;2.30;;;24.60;60.70;;;;;;5024948;28;20169;-76
2020/12/31 11:01:54;;;;;;;2.33;2.13;;;24.70;57.70;;;;;;5025160;28;20211;-78
2020/12/31 11:04:20;;;;;;;4.82;2.20;;;24.20;57.90;;;;;;5025397;28;20227;-78
2020/12/31 11:06:46;;;;;;;3.33;2.60;;;23.70;59.10;;;;;;5026097;28;20671;-75
2020/12/31 11:09:12;;;;;;;2.17;1.95;;;22.90;61.70;;;;;;5024781;28;20615;-76
2020/12/31 11:11:39;;;;;;;3.60;1.70;;;22.20;61.40;;;;;;5025722;28;20172;-77
2020/12/31 11:14:05;;;;;;;1.73;1.65;;;21.40;60.40;;;;;;5022791;28;20671;-77
2020/12/31 11:16:31;;;;;;;1.40;1.30;;;20.70;62.20;;;;;;5024327;28;20546;-77
2020/12/31 11:18:57;;;;;;;0.93;0.93;;;20.40;63.90;;;;;;5040437;28;20180;-77
2020/12/31 11:21:25;;;;;;;0.80;0.80;;;20.30;60.20;;;;;;5024951;28;20709;-77
2020/12/31 11:23:51;;;;;;;0.57;0.45;;;20.10;58.60;;;;;;5040449;28;20696;-77
2020/12/31 11:26:24;;;;;;;0.85;0.35;;;19.70;57.70;;;;;;5025399;28;20222;-78
2020/12/31 11:28:50;;;;;;;1.38;0.50;;;19.30;57.10;;;;;;5024792;28;20220;-76
2020/12/31 11:31:23;;;;;;;0.40;0.40;;;18.40;57.10;;;;;;5024692;28;20773;-76
2020/12/31 11:33:49;;;;;;;1.85;0.50;;;17.90;57.90;;;;;;5026259;28;20171;-76
2020/12/31 11:36:15;;;;;;;4.03;0.43;;;17.40;59.50;;;;;;5028773;28;20169;-77
2020/12/31 11:38:41;;;;;;;0.75;0.30;;;17.20;59.60;;;;;;5028603;28;20176;-77
2020/12/31 11:41:07;;;;;;;0.73;0.32;;;16.80;61.70;;;;;;5028276;28;20221;-77
2020/12/31 11:43:34;;;;;;;0.40;0.25;;;16.60;60.60;;;;;;5027056;28;20204;-77
2020/12/31 11:46:00;;;;;;;2.38;0.47;;;16.30;60.90;;;;;;5028161;28;20911;-77
2020/12/31 11:48:26;;;;;;;0.52;0.52;;;16.10;61.70;;;;;;5029144;28;20172;-77
2020/12/31 11:50:52;;;;;;;0.50;0.50;;;16.10;60.90;;;;;;5016910;28;20551;-78
2020/12/31 11:53:21;;;;;;;0.40;0.40;;;16.10;60.70;;;;;;5028950;28;20205;-77
2020/12/31 11:55:47;;;;;;;0.55;0.38;;;16.10;60.20;;;;;;5028710;28;20176;-77
2020/12/31 11:58:13;;;;;;;0.32;0.32;;;16.10;60.30;;;;;;5028126;28;20176;-77
2020/12/31 12:00:39;;;;;;;1.25;0.40;;;16.00;60.00;;;;;;5027449;28;20184;-76
2020/12/31 12:03:05;;;;;;;0.63;0.38;;;15.70;60.50;;;;;;5028781;28;20805;-76
2020/12/31 12:05:31;;;;;;;2.53;0.60;;;15.50;61.60;;;;;;5026912;28;20266;-77
2020/12/31 12:07:57;;;;;;;0.50;0.50;;;15.20;61.40;;;;;;5027959;28;20199;-77
2020/12/31 12:10:23;;;;;;;1.60;0.40;;;14.90;62.10;;;;;;5027683;28;20210;-77
2020/12/31 12:12:48;;;;;;;1.85;0.40;;;14.60;63.10;;;;;;5010449;28;20180;-76
2020/12/31 12:15:14;;;;;;;1.90;0.45;;;14.50;63.50;;;;;;5028451;28;20183;-76
2020/12/31 12:17:40;;;;;;;0.40;0.40;;;14.70;63.70;;;;;;5028028;28;20185;-77
2020/12/31 12:20:07;;;;;;;0.35;0.35;;;15.10;62.90;;;;;;5027607;28;20183;-77
2020/12/31 12:22:33;;;;;;;3.70;0.50;;;15.40;62.60;;;;;;5026624;28;20561;-78
2020/12/31 12:25:00;;;;;;;0.28;0.28;;;15.70;62.60;;;;;;5010595;28;20208;-78
2020/12/31 12:27:26;;;;;;;1.38;0.50;;;16.30;60.90;;;;;;5029067;28;20172;-79
2020/12/31 12:29:51;;;;;;;0.38;0.38;;;16.60;60.70;;;;;;5028640;28;20192;-79
2020/12/31 12:32:17;;;;;;;1.02;0.60;;;17.00;60.70;;;;;;5028825;28;20645;-78
2020/12/31 12:34:43;;;;;;;1.55;0.30;;;17.20;59.90;;;;;;5028128;28;20183;-79
2020/12/31 12:37:10;;;;;;;0.22;0.20;;;17.40;59.00;;;;;;5027965;28;20187;-79
2020/12/31 12:39:35;;;;;;;2.15;0.50;;;17.60;58.60;;;;;;5028063;28;20203;-80
2020/12/31 12:42:02;;;;;;;2.65;0.40;;;17.40;57.80;;;;;;5028063;28;20626;-78
2020/12/31 12:44:28;;;;;;;1.35;0.50;;;17.20;58.90;;;;;;5028228;28;20680;-80
2020/12/31 12:46:54;;;;;;;0.63;0.25;;;17.00;59.20;;;;;;5027495;28;20176;-78
2020/12/31 12:49:21;;;;;;;0.30;0.30;;;16.90;57.90;;;;;;5028419;28;20184;-79
2020/12/31 12:51:47;;;;;;;0.52;0.52;;;17.00;58.00;;;;;;5028691;28;20652;-79
2020/12/31 12:54:12;;;;;;;1.90;0.43;;;17.20;58.60;;;;;;5029856;28;20177;-78
2020/12/31 12:56:38;;;;;;;1.02;0.30;;;17.50;60.00;;;;;;5029974;28;20180;-78
2020/12/31 12:59:07;;;;;;;0.40;0.40;;;17.80;56.80;;;;;;5030443;28;20238;-80